ALLIED4 EPDA-EPDA
Flight info
| Callsign | ALLIED4 |
|---|---|
| Flight time | 0h 49m |
| Altitude | 1500 |
| Route | EPDAE EPDALW |
| Aircraft | MI2/M-DGV/C |
Departure
| Time | 2026-05-01 09:21 |
|---|---|
| Airport | Darłówo Naval Air Base (EPDA) |
Arrival
| Time | 2026-05-01 10:11 |
|---|---|
| Airport | Darłówo Naval Air Base (EPDA) |
| Time | Latitude | Longitude | Altitude | Speed | Heading |
|---|---|---|---|---|---|
| 2026-05-01 09:12 | 54.40514 | 16.35705 | 7 ft | 0 kts | 190° |
| 2026-05-01 09:15 | 54.40512 | 16.35703 | 7 ft | 1 kts | 292° |
| 2026-05-01 09:15 | 54.40511 | 16.35702 | 7 ft | 0 kts | 319° |
| 2026-05-01 09:16 | 54.40513 | 16.35699 | 7 ft | 2 kts | 315° |
| 2026-05-01 09:16 | 54.40531 | 16.35679 | 8 ft | 4 kts | 26° |
| 2026-05-01 09:16 | 54.40552 | 16.35697 | 8 ft | 4 kts | 39° |
| 2026-05-01 09:17 | 54.40585 | 16.35745 | 8 ft | 2 kts | 29° |
| 2026-05-01 09:17 | 54.40602 | 16.35748 | 8 ft | 2 kts | 316° |
| 2026-05-01 09:17 | 54.40634 | 16.35688 | 7 ft | 5 kts | 316° |
| 2026-05-01 09:18 | 54.40645 | 16.35666 | 7 ft | 1 kts | 314° |
| 2026-05-01 09:18 | 54.40655 | 16.35595 | 8 ft | 5 kts | 239° |
| 2026-05-01 09:19 | 54.40443 | 16.35262 | 48 ft | 42 kts | 227° |
| 2026-05-01 09:19 | 54.40188 | 16.34891 | 122 ft | 52 kts | 217° |
| 2026-05-01 09:19 | 54.40172 | 16.34298 | 301 ft | 61 kts | 306° |
| 2026-05-01 09:20 | 54.40944 | 16.35013 | 416 ft | 71 kts | 44° |
| 2026-05-01 09:20 | 54.40612 | 16.35531 | 29 ft | 46 kts | 216° |
| 2026-05-01 09:21 | 54.40161 | 16.34838 | 191 ft | 69 kts | 211° |
| 2026-05-01 09:21 | 54.39669 | 16.34675 | 472 ft | 87 kts | 156° |
| 2026-05-01 09:21 | 54.38650 | 16.36477 | 658 ft | 117 kts | 128° |
| 2026-05-01 09:22 | 54.37849 | 16.38825 | 646 ft | 111 kts | 98° |
| 2026-05-01 09:22 | 54.37030 | 16.40528 | 770 ft | 97 kts | 182° |
| 2026-05-01 09:23 | 54.36343 | 16.40370 | 816 ft | 103 kts | 192° |
| 2026-05-01 09:23 | 54.34874 | 16.40092 | 1026 ft | 105 kts | 188° |
| 2026-05-01 09:24 | 54.33498 | 16.39892 | 1313 ft | 102 kts | 189° |
| 2026-05-01 09:24 | 54.32754 | 16.39817 | 1330 ft | 108 kts | 186° |
| 2026-05-01 09:24 | 54.31250 | 16.39353 | 1344 ft | 110 kts | 198° |
| 2026-05-01 09:25 | 54.29837 | 16.38709 | 1345 ft | 107 kts | 195° |
| 2026-05-01 09:25 | 54.28183 | 16.38460 | 932 ft | 121 kts | 191° |
| 2026-05-01 09:26 | 54.27390 | 16.38377 | 894 ft | 107 kts | 190° |
| 2026-05-01 09:26 | 54.25896 | 16.38402 | 968 ft | 110 kts | 182° |
| 2026-05-01 09:26 | 54.25140 | 16.38496 | 963 ft | 109 kts | 178° |
| 2026-05-01 09:27 | 54.23678 | 16.38813 | 1045 ft | 110 kts | 169° |
| 2026-05-01 09:27 | 54.22929 | 16.39110 | 1074 ft | 109 kts | 166° |
| 2026-05-01 09:27 | 54.22199 | 16.39464 | 1103 ft | 110 kts | 162° |
| 2026-05-01 09:28 | 54.21475 | 16.40018 | 1074 ft | 116 kts | 153° |
| 2026-05-01 09:28 | 54.20762 | 16.40672 | 1063 ft | 116 kts | 151° |
| 2026-05-01 09:28 | 54.20048 | 16.41347 | 1029 ft | 117 kts | 150° |
| 2026-05-01 09:28 | 54.19344 | 16.42011 | 1035 ft | 114 kts | 149° |
| 2026-05-01 09:29 | 54.18034 | 16.43252 | 1309 ft | 93 kts | 146° |
| 2026-05-01 09:29 | 54.17511 | 16.43671 | 1592 ft | 76 kts | 152° |
| 2026-05-01 09:30 | 54.16404 | 16.44833 | 408 ft | 95 kts | 136° |
| 2026-05-01 09:30 | 54.16013 | 16.45600 | 424 ft | 87 kts | 98° |
| 2026-05-01 09:30 | 54.16550 | 16.46126 | 766 ft | 68 kts | 285° |
| 2026-05-01 09:31 | 54.16731 | 16.45373 | 402 ft | 69 kts | 296° |
| 2026-05-01 09:31 | 54.16852 | 16.44787 | 392 ft | 59 kts | 262° |
| 2026-05-01 09:31 | 54.16523 | 16.43374 | 945 ft | 82 kts | 194° |
| 2026-05-01 09:32 | 54.16005 | 16.43746 | 1053 ft | 83 kts | 155° |
| 2026-05-01 09:32 | 54.15869 | 16.44804 | 482 ft | 61 kts | 348° |
| 2026-05-01 09:32 | 54.16255 | 16.44807 | 801 ft | 58 kts | 348° |
| 2026-05-01 09:33 | 54.16687 | 16.44644 | 853 ft | 72 kts | 324° |
| 2026-05-01 09:33 | 54.16910 | 16.44018 | 431 ft | 60 kts | 249° |
| 2026-05-01 09:33 | 54.16290 | 16.43746 | 755 ft | 71 kts | 162° |
| 2026-05-01 09:34 | 54.15870 | 16.44309 | 872 ft | 82 kts | 124° |
| 2026-05-01 09:34 | 54.15656 | 16.45128 | 1072 ft | 69 kts | 104° |
| 2026-05-01 09:34 | 54.15138 | 16.45405 | 482 ft | 33 kts | 264° |
| 2026-05-01 09:35 | 54.15289 | 16.44908 | 641 ft | 69 kts | 305° |
| 2026-05-01 09:35 | 54.16174 | 16.43456 | 801 ft | 91 kts | 312° |
| 2026-05-01 09:35 | 54.16353 | 16.42525 | 494 ft | 75 kts | 249° |
| 2026-05-01 09:36 | 54.16042 | 16.42110 | 414 ft | 52 kts | 174° |
| 2026-05-01 09:36 | 54.15831 | 16.42569 | 747 ft | 63 kts | 65° |
| 2026-05-01 09:36 | 54.15914 | 16.43476 | 999 ft | 91 kts | 69° |
| 2026-05-01 09:36 | 54.15910 | 16.44596 | 1238 ft | 97 kts | 83° |
| 2026-05-01 09:37 | 54.15863 | 16.45814 | 581 ft | 111 kts | 98° |
| 2026-05-01 09:37 | 54.16280 | 16.46328 | 655 ft | 59 kts | 259° |
| 2026-05-01 09:37 | 54.16142 | 16.45500 | 916 ft | 86 kts | 236° |
| 2026-05-01 09:38 | 54.15039 | 16.44112 | 767 ft | 103 kts | 202° |
| 2026-05-01 09:38 | 54.14388 | 16.44275 | 773 ft | 87 kts | 157° |
| 2026-05-01 09:38 | 54.14130 | 16.44869 | 813 ft | 40 kts | 113° |
| 2026-05-01 09:39 | 54.13965 | 16.45556 | 621 ft | 23 kts | 117° |
| 2026-05-01 09:39 | 54.13937 | 16.45731 | 397 ft | 7 kts | 94° |
| 2026-05-01 09:39 | 54.13930 | 16.45764 | 328 ft | 2 kts | 85° |
| 2026-05-01 09:40 | 54.13927 | 16.45769 | 320 ft | 0 kts | 84° |
| 2026-05-01 09:40 | 54.13921 | 16.45815 | 466 ft | 13 kts | 76° |
| 2026-05-01 09:41 | 54.14048 | 16.46168 | 604 ft | 50 kts | 17° |
| 2026-05-01 09:41 | 54.14741 | 16.46193 | 832 ft | 55 kts | 342° |
| 2026-05-01 09:41 | 54.15053 | 16.45862 | 682 ft | 55 kts | 321° |
| 2026-05-01 09:42 | 54.15140 | 16.45494 | 406 ft | 11 kts | 313° |
| 2026-05-01 09:42 | 54.15155 | 16.45455 | 327 ft | 1 kts | 295° |
| 2026-05-01 09:42 | 54.15156 | 16.45452 | 315 ft | 0 kts | 287° |
| 2026-05-01 09:46 | 54.15163 | 16.45424 | 459 ft | 9 kts | 276° |
| 2026-05-01 09:46 | 54.15179 | 16.45098 | 635 ft | 45 kts | 264° |
| 2026-05-01 09:47 | 54.15098 | 16.44402 | 763 ft | 73 kts | 255° |
| 2026-05-01 09:47 | 54.14690 | 16.43713 | 859 ft | 94 kts | 211° |
| 2026-05-01 09:47 | 54.14021 | 16.43582 | 914 ft | 100 kts | 175° |
| 2026-05-01 09:47 | 54.13400 | 16.44140 | 995 ft | 107 kts | 137° |
| 2026-05-01 09:48 | 54.13034 | 16.45224 | 1046 ft | 108 kts | 99° |
| 2026-05-01 09:48 | 54.13087 | 16.46466 | 1066 ft | 103 kts | 64° |
| 2026-05-01 09:48 | 54.13588 | 16.47216 | 1115 ft | 94 kts | 16° |
| 2026-05-01 09:48 | 54.14218 | 16.47251 | 1140 ft | 93 kts | 343° |
| 2026-05-01 09:49 | 54.14801 | 16.46702 | 1080 ft | 98 kts | 316° |
| 2026-05-01 09:49 | 54.15139 | 16.45700 | 1008 ft | 99 kts | 285° |
| 2026-05-01 09:49 | 54.15226 | 16.44534 | 966 ft | 99 kts | 294° |
| 2026-05-01 09:49 | 54.15657 | 16.43532 | 518 ft | 116 kts | 329° |
| 2026-05-01 09:50 | 54.16280 | 16.42837 | 382 ft | 97 kts | 290° |
| 2026-05-01 09:50 | 54.15973 | 16.42140 | 409 ft | 92 kts | 152° |
| 2026-05-01 09:50 | 54.15892 | 16.42803 | 477 ft | 75 kts | 26° |
| 2026-05-01 09:50 | 54.16461 | 16.43020 | 564 ft | 79 kts | 12° |
| 2026-05-01 09:51 | 54.16860 | 16.43665 | 537 ft | 96 kts | 54° |
| 2026-05-01 09:51 | 54.17015 | 16.44841 | 443 ft | 96 kts | 115° |
| 2026-05-01 09:51 | 54.16444 | 16.45278 | 334 ft | 102 kts | 166° |
| 2026-05-01 09:51 | 54.15851 | 16.45956 | 399 ft | 103 kts | 111° |
| 2026-05-01 09:52 | 54.16172 | 16.46453 | 500 ft | 54 kts | 327° |
| 2026-05-01 09:52 | 54.16363 | 16.46005 | 506 ft | 50 kts | 276° |
| 2026-05-01 09:52 | 54.16614 | 16.45324 | 338 ft | 76 kts | 302° |
| 2026-05-01 09:52 | 54.16898 | 16.44576 | 327 ft | 73 kts | 287° |
| 2026-05-01 09:53 | 54.16688 | 16.43948 | 477 ft | 45 kts | 213° |
| 2026-05-01 09:53 | 54.16439 | 16.43723 | 609 ft | 59 kts | 193° |
| 2026-05-01 09:53 | 54.15921 | 16.43525 | 422 ft | 80 kts | 217° |
| 2026-05-01 09:53 | 54.15623 | 16.42723 | 341 ft | 79 kts | 249° |
| 2026-05-01 09:54 | 54.15728 | 16.42016 | 434 ft | 61 kts | 326° |
| 2026-05-01 09:54 | 54.16074 | 16.41795 | 609 ft | 56 kts | 358° |
| 2026-05-01 09:54 | 54.16453 | 16.42231 | 628 ft | 78 kts | 46° |
| 2026-05-01 09:54 | 54.16777 | 16.43020 | 635 ft | 81 kts | 52° |
| 2026-05-01 09:55 | 54.17033 | 16.44078 | 326 ft | 109 kts | 84° |
| 2026-05-01 09:55 | 54.16840 | 16.45061 | 435 ft | 82 kts | 161° |
| 2026-05-01 09:55 | 54.16288 | 16.45351 | 476 ft | 81 kts | 165° |
| 2026-05-01 09:55 | 54.15996 | 16.46130 | 470 ft | 87 kts | 78° |
| 2026-05-01 09:56 | 54.16438 | 16.46285 | 374 ft | 65 kts | 254° |
| 2026-05-01 09:56 | 54.16181 | 16.45815 | 480 ft | 59 kts | 221° |
| 2026-05-01 09:56 | 54.15823 | 16.45436 | 574 ft | 61 kts | 230° |
| 2026-05-01 09:56 | 54.15597 | 16.44772 | 560 ft | 72 kts | 257° |
| 2026-05-01 09:57 | 54.15813 | 16.44559 | 599 ft | 66 kts | 66° |
| 2026-05-01 09:57 | 54.15523 | 16.44653 | 579 ft | 65 kts | 223° |
| 2026-05-01 09:57 | 54.15255 | 16.44103 | 629 ft | 59 kts | 305° |
| 2026-05-01 09:57 | 54.15569 | 16.43540 | 599 ft | 70 kts | 324° |
| 2026-05-01 09:58 | 54.15711 | 16.42845 | 702 ft | 54 kts | 276° |
| 2026-05-01 09:58 | 54.15791 | 16.42516 | 1015 ft | 26 kts | 319° |
| 2026-05-01 09:58 | 54.15981 | 16.42356 | 1052 ft | 40 kts | 340° |
| 2026-05-01 09:58 | 54.16223 | 16.41904 | 404 ft | 42 kts | 205° |
| 2026-05-01 09:59 | 54.16016 | 16.41999 | 361 ft | 39 kts | 141° |
| 2026-05-01 09:59 | 54.15899 | 16.42302 | 498 ft | 25 kts | 61° |
| 2026-05-01 09:59 | 54.15995 | 16.42590 | 757 ft | 38 kts | 15° |
| 2026-05-01 09:59 | 54.16266 | 16.43016 | 1065 ft | 64 kts | 16° |
| 2026-05-01 10:00 | 54.16714 | 16.43443 | 1267 ft | 85 kts | 5° |
| 2026-05-01 10:00 | 54.17338 | 16.43354 | 1356 ft | 98 kts | 339° |
| 2026-05-01 10:00 | 54.17998 | 16.43064 | 1194 ft | 96 kts | 345° |
| 2026-05-01 10:00 | 54.18582 | 16.42777 | 1220 ft | 80 kts | 340° |
| 2026-05-01 10:01 | 54.19072 | 16.42467 | 1307 ft | 73 kts | 340° |
| 2026-05-01 10:01 | 54.19526 | 16.42154 | 1328 ft | 69 kts | 336° |
| 2026-05-01 10:01 | 54.19931 | 16.41809 | 1378 ft | 59 kts | 329° |
| 2026-05-01 10:01 | 54.20255 | 16.41484 | 1478 ft | 49 kts | 326° |
| 2026-05-01 10:02 | 54.20543 | 16.41150 | 1500 ft | 60 kts | 323° |
| 2026-05-01 10:02 | 54.21007 | 16.40668 | 1432 ft | 91 kts | 327° |
| 2026-05-01 10:02 | 54.21599 | 16.40128 | 1408 ft | 100 kts | 329° |
| 2026-05-01 10:02 | 54.22214 | 16.39583 | 1484 ft | 98 kts | 329° |
| 2026-05-01 10:03 | 54.22811 | 16.39081 | 1644 ft | 97 kts | 339° |
| 2026-05-01 10:03 | 54.23495 | 16.38925 | 1682 ft | 100 kts | 357° |
| 2026-05-01 10:03 | 54.24203 | 16.38942 | 1692 ft | 104 kts | 358° |
| 2026-05-01 10:03 | 54.24908 | 16.38881 | 1674 ft | 97 kts | 350° |
| 2026-05-01 10:04 | 54.25583 | 16.38733 | 1694 ft | 103 kts | 348° |
| 2026-05-01 10:04 | 54.26287 | 16.38587 | 1594 ft | 100 kts | 351° |
| 2026-05-01 10:04 | 54.26976 | 16.38490 | 1575 ft | 101 kts | 357° |
| 2026-05-01 10:04 | 54.27675 | 16.38553 | 1512 ft | 104 kts | 7° |
| 2026-05-01 10:05 | 54.28387 | 16.38883 | 1416 ft | 108 kts | 17° |
| 2026-05-01 10:05 | 54.29075 | 16.39320 | 1379 ft | 98 kts | 13° |
| 2026-05-01 10:05 | 54.29712 | 16.39377 | 1369 ft | 93 kts | 353° |
| 2026-05-01 10:05 | 54.30368 | 16.39350 | 1274 ft | 96 kts | 354° |
| 2026-05-01 10:06 | 54.31008 | 16.39239 | 1232 ft | 87 kts | 349° |
| 2026-05-01 10:06 | 54.31633 | 16.39021 | 1122 ft | 95 kts | 345° |
| 2026-05-01 10:06 | 54.32317 | 16.38979 | 1009 ft | 102 kts | 4° |
| 2026-05-01 10:06 | 54.32962 | 16.39099 | 1108 ft | 86 kts | 359° |
| 2026-05-01 10:07 | 54.33603 | 16.39174 | 1092 ft | 93 kts | 2° |
| 2026-05-01 10:07 | 54.34216 | 16.39292 | 1172 ft | 88 kts | 2° |
| 2026-05-01 10:07 | 54.34840 | 16.39414 | 1174 ft | 91 kts | 3° |
| 2026-05-01 10:07 | 54.35489 | 16.39547 | 1163 ft | 97 kts | 1° |
| 2026-05-01 10:08 | 54.36787 | 16.39872 | 1114 ft | 91 kts | 5° |
| 2026-05-01 10:08 | 54.37363 | 16.39955 | 1285 ft | 77 kts | 354° |
| 2026-05-01 10:08 | 54.37904 | 16.39861 | 1325 ft | 81 kts | 339° |
| 2026-05-01 10:09 | 54.38390 | 16.39255 | 1254 ft | 92 kts | 316° |
| 2026-05-01 10:09 | 54.38843 | 16.38428 | 1116 ft | 99 kts | 312° |
| 2026-05-01 10:09 | 54.39432 | 16.37912 | 1006 ft | 106 kts | 8° |
| 2026-05-01 10:09 | 54.40064 | 16.38517 | 966 ft | 103 kts | 33° |
| 2026-05-01 10:10 | 54.40611 | 16.39255 | 1019 ft | 96 kts | 31° |
| 2026-05-01 10:10 | 54.41124 | 16.39084 | 1102 ft | 79 kts | 300° |
| 2026-05-01 10:10 | 54.41546 | 16.37268 | 685 ft | 86 kts | 259° |
| 2026-05-01 10:11 | 54.41215 | 16.36518 | 387 ft | 73 kts | 230° |
| 2026-05-01 10:11 | 54.40906 | 16.36023 | 195 ft | 50 kts | 233° |
| 2026-05-01 10:11 | 54.40718 | 16.35690 | 58 ft | 27 kts | 218° |
| 2026-05-01 10:11 | 54.40589 | 16.35747 | 7 ft | 0 kts | 260° |
| 2026-05-01 10:12 | 54.40584 | 16.35743 | 8 ft | 3 kts | 198° |
| 2026-05-01 10:12 | 54.40557 | 16.35708 | 8 ft | 3 kts | 219° |
| 2026-05-01 10:12 | 54.40521 | 16.35722 | 8 ft | 7 kts | 284° |
| 2026-05-01 10:13 | 54.40518 | 16.35725 | 6 ft | 0 kts | 343° |